sensor_id;sensor_type;location;lat;lon;timestamp;temperature;humidity
19888;DHT22;10106;51.332;12.336;2022-08-21T00:01:24;18.30;99.90
19888;DHT22;10106;51.332;12.336;2022-08-21T00:03:51;18.20;99.90
19888;DHT22;10106;51.332;12.336;2022-08-21T00:06:16;18.30;99.90
19888;DHT22;10106;51.332;12.336;2022-08-21T00:08:43;18.20;99.90
19888;DHT22;10106;51.332;12.336;2022-08-21T00:11:09;18.20;99.90
19888;DHT22;10106;51.332;12.336;2022-08-21T00:13:36;18.20;99.90
19888;DHT22;10106;51.332;12.336;2022-08-21T00:16:02;18.20;99.90
19888;DHT22;10106;51.332;12.336;2022-08-21T00:18:30;18.20;99.90
19888;DHT22;10106;51.332;12.336;2022-08-21T00:20:56;18.20;99.90
19888;DHT22;10106;51.332;12.336;2022-08-21T00:23:22;18.20;99.90
19888;DHT22;10106;51.332;12.336;2022-08-21T00:25:48;18.20;99.90
19888;DHT22;10106;51.332;12.336;2022-08-21T00:28:14;18.30;99.90
19888;DHT22;10106;51.332;12.336;2022-08-21T00:30:41;18.30;99.90
19888;DHT22;10106;51.332;12.336;2022-08-21T00:33:08;18.30;99.90
19888;DHT22;10106;51.332;12.336;2022-08-21T00:35:36;18.30;99.90
19888;DHT22;10106;51.332;12.336;2022-08-21T00:38:07;18.30;99.90
19888;DHT22;10106;51.332;12.336;2022-08-21T00:40:53;18.30;99.90
19888;DHT22;10106;51.332;12.336;2022-08-21T00:43:22;18.30;99.90
19888;DHT22;10106;51.332;12.336;2022-08-21T00:45:49;18.30;99.90
19888;DHT22;10106;51.332;12.336;2022-08-21T00:48:16;18.20;99.90
19888;DHT22;10106;51.332;12.336;2022-08-21T00:51:14;18.10;99.90
19888;DHT22;10106;51.332;12.336;2022-08-21T00:53:44;18.10;99.90
19888;DHT22;10106;51.332;12.336;2022-08-21T00:56:11;18.10;99.90
19888;DHT22;10106;51.332;12.336;2022-08-21T00:58:39;18.10;99.90
19888;DHT22;10106;51.332;12.336;2022-08-21T01:01:06;18.10;99.90
19888;DHT22;10106;51.332;12.336;2022-08-21T01:03:33;18.10;99.90
19888;DHT22;10106;51.332;12.336;2022-08-21T01:05:59;18.10;99.90
19888;DHT22;10106;51.332;12.336;2022-08-21T01:08:25;18.20;99.90
19888;DHT22;10106;51.332;12.336;2022-08-21T01:10:53;18.30;99.90
19888;DHT22;10106;51.332;12.336;2022-08-21T01:13:19;18.30;99.90
19888;DHT22;10106;51.332;12.336;2022-08-21T01:15:50;18.30;99.90
19888;DHT22;10106;51.332;12.336;2022-08-21T01:18:18;18.30;99.90
19888;DHT22;10106;51.332;12.336;2022-08-21T01:23:30;18.30;99.90
19888;DHT22;10106;51.332;12.336;2022-08-21T01:25:56;18.30;99.90
19888;DHT22;10106;51.332;12.336;2022-08-21T01:28:22;18.40;99.90
19888;DHT22;10106;51.332;12.336;2022-08-21T01:30:49;18.40;99.90
19888;DHT22;10106;51.332;12.336;2022-08-21T01:33:17;18.40;99.90
19888;DHT22;10106;51.332;12.336;2022-08-21T01:35:43;18.40;99.90
19888;DHT22;10106;51.332;12.336;2022-08-21T01:38:09;18.50;99.90
19888;DHT22;10106;51.332;12.336;2022-08-21T01:40:34;18.40;99.90
19888;DHT22;10106;51.332;12.336;2022-08-21T01:43:00;18.40;99.90
19888;DHT22;10106;51.332;12.336;2022-08-21T01:45:27;18.40;99.90
19888;DHT22;10106;51.332;12.336;2022-08-21T01:47:53;18.40;99.90
19888;DHT22;10106;51.332;12.336;2022-08-21T01:50:19;18.40;99.90
19888;DHT22;10106;51.332;12.336;2022-08-21T01:52:46;18.30;99.90
19888;DHT22;10106;51.332;12.336;2022-08-21T01:55:13;18.30;99.90
19888;DHT22;10106;51.332;12.336;2022-08-21T01:57:39;18.20;99.90
19888;DHT22;10106;51.332;12.336;2022-08-21T02:00:08;18.20;99.90
19888;DHT22;10106;51.332;12.336;2022-08-21T02:02:35;18.10;99.90
19888;DHT22;10106;51.332;12.336;2022-08-21T02:05:00;18.10;99.90
19888;DHT22;10106;51.332;12.336;2022-08-21T02:07:26;18.00;99.90
19888;DHT22;10106;51.332;12.336;2022-08-21T02:09:52;18.00;99.90
19888;DHT22;10106;51.332;12.336;2022-08-21T02:12:17;17.90;99.90
19888;DHT22;10106;51.332;12.336;2022-08-21T02:14:43;17.90;99.90
19888;DHT22;10106;51.332;12.336;2022-08-21T02:17:08;17.90;99.90
19888;DHT22;10106;51.332;12.336;2022-08-21T02:19:34;17.80;99.90
19888;DHT22;10106;51.332;12.336;2022-08-21T02:21:59;17.80;99.90
19888;DHT22;10106;51.332;12.336;2022-08-21T02:24:25;17.80;99.90
19888;DHT22;10106;51.332;12.336;2022-08-21T02:26:51;17.80;99.90
19888;DHT22;10106;51.332;12.336;2022-08-21T02:29:16;17.80;99.90
19888;DHT22;10106;51.332;12.336;2022-08-21T02:31:42;17.80;99.90
19888;DHT22;10106;51.332;12.336;2022-08-21T02:34:07;17.80;99.90
19888;DHT22;10106;51.332;12.336;2022-08-21T02:36:34;17.80;99.90
19888;DHT22;10106;51.332;12.336;2022-08-21T02:39:00;17.70;99.90
19888;DHT22;10106;51.332;12.336;2022-08-21T02:41:25;17.70;99.90
19888;DHT22;10106;51.332;12.336;2022-08-21T02:43:51;17.70;99.90
19888;DHT22;10106;51.332;12.336;2022-08-21T02:46:19;17.60;99.90
19888;DHT22;10106;51.332;12.336;2022-08-21T02:48:45;17.60;99.90
19888;DHT22;10106;51.332;12.336;2022-08-21T02:51:17;17.60;99.90
19888;DHT22;10106;51.332;12.336;2022-08-21T02:53:43;17.60;99.90
19888;DHT22;10106;51.332;12.336;2022-08-21T02:56:11;17.70;99.90
19888;DHT22;10106;51.332;12.336;2022-08-21T02:58:43;17.60;99.90
19888;DHT22;10106;51.332;12.336;2022-08-21T03:01:09;17.60;99.90
19888;DHT22;10106;51.332;12.336;2022-08-21T03:03:37;17.60;99.90
19888;DHT22;10106;51.332;12.336;2022-08-21T03:06:04;17.60;99.90
19888;DHT22;10106;51.332;12.336;2022-08-21T03:08:30;17.50;99.90
19888;DHT22;10106;51.332;12.336;2022-08-21T03:10:56;17.50;99.90
19888;DHT22;10106;51.332;12.336;2022-08-21T03:13:22;17.50;99.90
19888;DHT22;10106;51.332;12.336;2022-08-21T03:15:49;17.60;99.90
19888;DHT22;10106;51.332;12.336;2022-08-21T03:18:15;17.50;99.90
19888;DHT22;10106;51.332;12.336;2022-08-21T03:20:42;17.50;99.90
19888;DHT22;10106;51.332;12.336;2022-08-21T03:23:09;17.50;99.90
19888;DHT22;10106;51.332;12.336;2022-08-21T03:25:35;17.40;99.90
19888;DHT22;10106;51.332;12.336;2022-08-21T03:28:01;17.40;99.90
19888;DHT22;10106;51.332;12.336;2022-08-21T03:30:28;17.30;99.90
19888;DHT22;10106;51.332;12.336;2022-08-21T03:32:53;17.30;99.90
19888;DHT22;10106;51.332;12.336;2022-08-21T03:35:19;17.40;99.90
19888;DHT22;10106;51.332;12.336;2022-08-21T03:37:45;17.40;99.90
19888;DHT22;10106;51.332;12.336;2022-08-21T03:40:15;17.40;99.90
19888;DHT22;10106;51.332;12.336;2022-08-21T03:42:40;17.40;99.90
19888;DHT22;10106;51.332;12.336;2022-08-21T03:45:07;17.40;99.90
19888;DHT22;10106;51.332;12.336;2022-08-21T03:47:33;17.40;99.90
19888;DHT22;10106;51.332;12.336;2022-08-21T03:49:59;17.40;99.90
19888;DHT22;10106;51.332;12.336;2022-08-21T03:52:25;17.30;99.90
19888;DHT22;10106;51.332;12.336;2022-08-21T03:54:51;17.40;99.90
19888;DHT22;10106;51.332;12.336;2022-08-21T03:57:17;17.40;99.90
19888;DHT22;10106;51.332;12.336;2022-08-21T03:59:42;17.40;99.90
19888;DHT22;10106;51.332;12.336;2022-08-21T04:02:09;17.30;99.90
19888;DHT22;10106;51.332;12.336;2022-08-21T04:04:35;17.40;99.90
19888;DHT22;10106;51.332;12.336;2022-08-21T04:07:01;17.40;99.90
19888;DHT22;10106;51.332;12.336;2022-08-21T04:09:27;17.40;99.90
19888;DHT22;10106;51.332;12.336;2022-08-21T04:11:53;17.40;99.90
19888;DHT22;10106;51.332;12.336;2022-08-21T04:14:19;17.40;99.90
19888;DHT22;10106;51.332;12.336;2022-08-21T04:16:44;17.40;99.90
19888;DHT22;10106;51.332;12.336;2022-08-21T04:19:12;17.40;99.90
19888;DHT22;10106;51.332;12.336;2022-08-21T04:21:40;17.40;99.90
19888;DHT22;10106;51.332;12.336;2022-08-21T04:24:07;17.40;99.90
19888;DHT22;10106;51.332;12.336;2022-08-21T04:26:42;17.40;99.90
19888;DHT22;10106;51.332;12.336;2022-08-21T04:29:08;17.40;99.90
19888;DHT22;10106;51.332;12.336;2022-08-21T04:31:34;17.30;99.90
19888;DHT22;10106;51.332;12.336;2022-08-21T04:34:00;17.40;99.90
19888;DHT22;10106;51.332;12.336;2022-08-21T04:36:26;17.30;99.90
19888;DHT22;10106;51.332;12.336;2022-08-21T04:38:52;17.40;99.90
19888;DHT22;10106;51.332;12.336;2022-08-21T04:41:17;17.40;99.90
19888;DHT22;10106;51.332;12.336;2022-08-21T04:43:43;17.40;99.90
19888;DHT22;10106;51.332;12.336;2022-08-21T04:46:09;17.50;99.90
19888;DHT22;10106;51.332;12.336;2022-08-21T04:48:35;17.60;99.90
19888;DHT22;10106;51.332;12.336;2022-08-21T04:51:14;17.70;99.90
19888;DHT22;10106;51.332;12.336;2022-08-21T04:53:57;17.80;99.90
19888;DHT22;10106;51.332;12.336;2022-08-21T04:56:30;17.80;99.90
19888;DHT22;10106;51.332;12.336;2022-08-21T04:58:58;17.90;99.90
19888;DHT22;10106;51.332;12.336;2022-08-21T05:06:37;18.00;99.90
19888;DHT22;10106;51.332;12.336;2022-08-21T05:09:04;18.00;99.90
19888;DHT22;10106;51.332;12.336;2022-08-21T05:11:31;18.00;99.90
19888;DHT22;10106;51.332;12.336;2022-08-21T05:13:58;18.00;99.90
19888;DHT22;10106;51.332;12.336;2022-08-21T05:16:23;18.00;99.90
19888;DHT22;10106;51.332;12.336;2022-08-21T05:18:49;18.00;99.90
19888;DHT22;10106;51.332;12.336;2022-08-21T05:21:15;18.00;99.90
19888;DHT22;10106;51.332;12.336;2022-08-21T05:23:41;18.00;99.90
19888;DHT22;10106;51.332;12.336;2022-08-21T05:26:06;18.00;99.90
19888;DHT22;10106;51.332;12.336;2022-08-21T05:28:32;18.10;99.90
19888;DHT22;10106;51.332;12.336;2022-08-21T05:30:57;18.10;99.90
19888;DHT22;10106;51.332;12.336;2022-08-21T05:33:23;18.20;99.90
19888;DHT22;10106;51.332;12.336;2022-08-21T05:35:50;18.20;99.90
19888;DHT22;10106;51.332;12.336;2022-08-21T05:38:17;18.30;99.90
19888;DHT22;10106;51.332;12.336;2022-08-21T05:40:43;18.40;99.90
19888;DHT22;10106;51.332;12.336;2022-08-21T05:43:09;18.60;99.90
19888;DHT22;10106;51.332;12.336;2022-08-21T05:45:34;18.60;99.90
19888;DHT22;10106;51.332;12.336;2022-08-21T05:48:26;18.70;99.90
19888;DHT22;10106;51.332;12.336;2022-08-21T05:50:52;18.70;99.90
19888;DHT22;10106;51.332;12.336;2022-08-21T05:53:19;18.80;99.90
19888;DHT22;10106;51.332;12.336;2022-08-21T05:55:45;18.80;99.90
19888;DHT22;10106;51.332;12.336;2022-08-21T05:58:16;18.90;99.90
19888;DHT22;10106;51.332;12.336;2022-08-21T06:00:43;18.90;99.90
19888;DHT22;10106;51.332;12.336;2022-08-21T06:03:19;18.90;99.90
19888;DHT22;10106;51.332;12.336;2022-08-21T06:05:45;19.10;99.90
19888;DHT22;10106;51.332;12.336;2022-08-21T06:08:11;19.20;99.90
19888;DHT22;10106;51.332;12.336;2022-08-21T06:10:37;19.30;99.90
19888;DHT22;10106;51.332;12.336;2022-08-21T06:13:03;19.50;99.90
19888;DHT22;10106;51.332;12.336;2022-08-21T06:15:30;19.60;99.90
19888;DHT22;10106;51.332;12.336;2022-08-21T06:17:55;19.70;99.90
19888;DHT22;10106;51.332;12.336;2022-08-21T06:20:21;19.80;99.90
19888;DHT22;10106;51.332;12.336;2022-08-21T06:22:47;20.00;99.90
19888;DHT22;10106;51.332;12.336;2022-08-21T06:25:13;20.00;99.90
19888;DHT22;10106;51.332;12.336;2022-08-21T06:27:38;20.00;99.90
19888;DHT22;10106;51.332;12.336;2022-08-21T06:30:06;19.90;99.90
19888;DHT22;10106;51.332;12.336;2022-08-21T06:32:32;19.90;99.90
19888;DHT22;10106;51.332;12.336;2022-08-21T06:34:57;19.80;99.90
19888;DHT22;10106;51.332;12.336;2022-08-21T06:37:23;19.80;99.90
19888;DHT22;10106;51.332;12.336;2022-08-21T06:39:48;19.70;99.90
19888;DHT22;10106;51.332;12.336;2022-08-21T06:42:15;19.70;99.90
19888;DHT22;10106;51.332;12.336;2022-08-21T06:44:41;19.70;99.90
19888;DHT22;10106;51.332;12.336;2022-08-21T06:47:07;19.70;99.90
19888;DHT22;10106;51.332;12.336;2022-08-21T06:49:32;19.80;99.90
19888;DHT22;10106;51.332;12.336;2022-08-21T06:51:58;19.80;99.90
19888;DHT22;10106;51.332;12.336;2022-08-21T06:54:24;19.90;99.90
19888;DHT22;10106;51.332;12.336;2022-08-21T06:56:49;19.90;99.90
19888;DHT22;10106;51.332;12.336;2022-08-21T06:59:15;19.90;99.90
19888;DHT22;10106;51.332;12.336;2022-08-21T07:01:41;20.00;99.90
19888;DHT22;10106;51.332;12.336;2022-08-21T07:04:06;20.00;99.90
19888;DHT22;10106;51.332;12.336;2022-08-21T07:06:32;20.10;99.90
19888;DHT22;10106;51.332;12.336;2022-08-21T07:08:58;20.20;99.90
19888;DHT22;10106;51.332;12.336;2022-08-21T07:11:24;20.30;99.90
19888;DHT22;10106;51.332;12.336;2022-08-21T07:13:51;21.00;99.90
19888;DHT22;10106;51.332;12.336;2022-08-21T07:16:19;21.80;99.90
19888;DHT22;10106;51.332;12.336;2022-08-21T07:18:45;22.50;99.90
19888;DHT22;10106;51.332;12.336;2022-08-21T07:21:10;23.50;99.90
19888;DHT22;10106;51.332;12.336;2022-08-21T07:23:44;24.30;99.90
19888;DHT22;10106;51.332;12.336;2022-08-21T07:26:12;24.70;99.90
19888;DHT22;10106;51.332;12.336;2022-08-21T07:28:37;24.80;99.90
19888;DHT22;10106;51.332;12.336;2022-08-21T07:31:04;24.70;99.90
19888;DHT22;10106;51.332;12.336;2022-08-21T07:33:31;24.40;99.90
19888;DHT22;10106;51.332;12.336;2022-08-21T07:35:57;24.10;99.90
19888;DHT22;10106;51.332;12.336;2022-08-21T07:38:23;23.80;99.90
19888;DHT22;10106;51.332;12.336;2022-08-21T07:40:51;23.50;99.90
19888;DHT22;10106;51.332;12.336;2022-08-21T07:43:18;23.20;99.90
19888;DHT22;10106;51.332;12.336;2022-08-21T07:45:44;23.00;99.90
19888;DHT22;10106;51.332;12.336;2022-08-21T07:48:10;22.80;99.90
19888;DHT22;10106;51.332;12.336;2022-08-21T07:50:36;22.60;99.90
19888;DHT22;10106;51.332;12.336;2022-08-21T07:53:02;22.20;99.90
19888;DHT22;10106;51.332;12.336;2022-08-21T07:55:28;22.10;99.90
19888;DHT22;10106;51.332;12.336;2022-08-21T07:57:54;22.00;99.90
19888;DHT22;10106;51.332;12.336;2022-08-21T08:00:22;22.10;99.90
19888;DHT22;10106;51.332;12.336;2022-08-21T08:02:50;22.30;99.90
19888;DHT22;10106;51.332;12.336;2022-08-21T08:05:19;22.50;99.90
19888;DHT22;10106;51.332;12.336;2022-08-21T08:07:45;22.70;99.90
19888;DHT22;10106;51.332;12.336;2022-08-21T08:10:11;22.90;99.90
19888;DHT22;10106;51.332;12.336;2022-08-21T08:12:42;23.00;99.90
19888;DHT22;10106;51.332;12.336;2022-08-21T08:15:12;23.10;99.90
19888;DHT22;10106;51.332;12.336;2022-08-21T08:17:37;23.20;99.90
19888;DHT22;10106;51.332;12.336;2022-08-21T08:20:07;23.20;99.90
19888;DHT22;10106;51.332;12.336;2022-08-21T08:22:34;23.20;99.90
19888;DHT22;10106;51.332;12.336;2022-08-21T08:25:01;23.30;99.90
19888;DHT22;10106;51.332;12.336;2022-08-21T08:27:26;23.30;99.90
19888;DHT22;10106;51.332;12.336;2022-08-21T08:29:52;23.50;99.90
19888;DHT22;10106;51.332;12.336;2022-08-21T08:32:19;23.50;99.90
19888;DHT22;10106;51.332;12.336;2022-08-21T08:34:44;23.40;99.90
19888;DHT22;10106;51.332;12.336;2022-08-21T08:37:12;23.60;99.90
19888;DHT22;10106;51.332;12.336;2022-08-21T08:39:37;23.80;99.90
19888;DHT22;10106;51.332;12.336;2022-08-21T08:42:11;24.20;99.90
19888;DHT22;10106;51.332;12.336;2022-08-21T08:44:40;24.70;99.90
19888;DHT22;10106;51.332;12.336;2022-08-21T08:47:06;25.20;99.90
19888;DHT22;10106;51.332;12.336;2022-08-21T08:49:45;25.40;99.90
19888;DHT22;10106;51.332;12.336;2022-08-21T08:52:36;25.50;99.90
19888;DHT22;10106;51.332;12.336;2022-08-21T08:55:36;25.80;99.90
19888;DHT22;10106;51.332;12.336;2022-08-21T08:57:59;27.20;99.90
19888;DHT22;10106;51.332;12.336;2022-08-21T09:00:27;29.20;95.90
19888;DHT22;10106;51.332;12.336;2022-08-21T09:02:55;30.50;87.40
19888;DHT22;10106;51.332;12.336;2022-08-21T09:05:28;31.50;81.80
19888;DHT22;10106;51.332;12.336;2022-08-21T09:19:06;31.70;61.50
19888;DHT22;10106;51.332;12.336;2022-08-21T09:24:49;32.40;61.20
19888;DHT22;10106;51.332;12.336;2022-08-21T09:27:19;32.60;60.60
19888;DHT22;10106;51.332;12.336;2022-08-21T09:29:49;32.70;60.10
19888;DHT22;10106;51.332;12.336;2022-08-21T09:32:23;32.10;59.00
19888;DHT22;10106;51.332;12.336;2022-08-21T09:35:07;30.60;60.00
19888;DHT22;10106;51.332;12.336;2022-08-21T09:37:55;29.40;62.90
19888;DHT22;10106;51.332;12.336;2022-08-21T09:40:27;28.90;68.00
19888;DHT22;10106;51.332;12.336;2022-08-21T09:43:03;28.90;65.30
19888;DHT22;10106;51.332;12.336;2022-08-21T09:45:30;29.10;62.60
19888;DHT22;10106;51.332;12.336;2022-08-21T09:47:56;29.00;62.90
19888;DHT22;10106;51.332;12.336;2022-08-21T09:50:32;29.40;61.80
19888;DHT22;10106;51.332;12.336;2022-08-21T09:53:00;29.30;60.60
19888;DHT22;10106;51.332;12.336;2022-08-21T09:56:01;29.40;62.10
19888;DHT22;10106;51.332;12.336;2022-08-21T09:58:38;30.10;62.10
19888;DHT22;10106;51.332;12.336;2022-08-21T10:01:06;30.10;62.20
19888;DHT22;10106;51.332;12.336;2022-08-21T10:03:32;30.30;59.80
19888;DHT22;10106;51.332;12.336;2022-08-21T10:06:00;30.80;58.70
19888;DHT22;10106;51.332;12.336;2022-08-21T10:08:28;30.40;58.00
19888;DHT22;10106;51.332;12.336;2022-08-21T10:10:57;30.00;58.00
19888;DHT22;10106;51.332;12.336;2022-08-21T10:13:47;29.80;58.00
19888;DHT22;10106;51.332;12.336;2022-08-21T10:18:56;29.10;59.60
19888;DHT22;10106;51.332;12.336;2022-08-21T10:26:57;28.40;62.60
19888;DHT22;10106;51.332;12.336;2022-08-21T10:29:50;28.80;62.00
19888;DHT22;10106;51.332;12.336;2022-08-21T10:32:38;28.60;61.00
19888;DHT22;10106;51.332;12.336;2022-08-21T10:35:18;28.70;62.10
19888;DHT22;10106;51.332;12.336;2022-08-21T10:40:54;28.90;63.00
19888;DHT22;10106;51.332;12.336;2022-08-21T10:49:25;28.10;59.80
19888;DHT22;10106;51.332;12.336;2022-08-21T10:52:26;27.90;61.70
19888;DHT22;10106;51.332;12.336;2022-08-21T10:55:03;27.50;62.90
19888;DHT22;10106;51.332;12.336;2022-08-21T11:00:21;27.20;65.80
19888;DHT22;10106;51.332;12.336;2022-08-21T11:02:59;27.30;65.40
19888;DHT22;10106;51.332;12.336;2022-08-21T11:05:39;27.30;65.60
19888;DHT22;10106;51.332;12.336;2022-08-21T11:08:12;27.20;68.60
19888;DHT22;10106;51.332;12.336;2022-08-21T11:11:04;27.30;68.50
19888;DHT22;10106;51.332;12.336;2022-08-21T11:13:39;27.50;69.50
19888;DHT22;10106;51.332;12.336;2022-08-21T11:29:39;26.70;68.80
19888;DHT22;10106;51.332;12.336;2022-08-21T11:37:47;25.90;73.40
19888;DHT22;10106;51.332;12.336;2022-08-21T11:45:55;26.00;75.70
19888;DHT22;10106;51.332;12.336;2022-08-21T11:48:59;26.10;76.90
19888;DHT22;10106;51.332;12.336;2022-08-21T11:51:34;26.00;77.10
19888;DHT22;10106;51.332;12.336;2022-08-21T11:54:08;26.00;74.80
19888;DHT22;10106;51.332;12.336;2022-08-21T11:56:43;26.10;77.80
19888;DHT22;10106;51.332;12.336;2022-08-21T11:59:13;26.40;72.40
19888;DHT22;10106;51.332;12.336;2022-08-21T12:01:43;26.20;71.90
19888;DHT22;10106;51.332;12.336;2022-08-21T12:04:34;26.10;72.10
19888;DHT22;10106;51.332;12.336;2022-08-21T12:07:15;26.40;72.90
19888;DHT22;10106;51.332;12.336;2022-08-21T12:09:52;26.80;70.10
19888;DHT22;10106;51.332;12.336;2022-08-21T12:12:31;27.10;69.80
19888;DHT22;10106;51.332;12.336;2022-08-21T12:15:27;26.90;68.10
19888;DHT22;10106;51.332;12.336;2022-08-21T12:18:28;27.10;68.70
19888;DHT22;10106;51.332;12.336;2022-08-21T12:20:58;27.00;68.70
19888;DHT22;10106;51.332;12.336;2022-08-21T12:23:31;27.00;68.00
19888;DHT22;10106;51.332;12.336;2022-08-21T12:28:40;26.90;67.40
19888;DHT22;10106;51.332;12.336;2022-08-21T12:31:21;27.10;67.60
19888;DHT22;10106;51.332;12.336;2022-08-21T12:34:01;27.10;66.50
19888;DHT22;10106;51.332;12.336;2022-08-21T12:36:45;27.00;67.40
19888;DHT22;10106;51.332;12.336;2022-08-21T12:39:15;26.90;68.30
19888;DHT22;10106;51.332;12.336;2022-08-21T12:41:49;27.20;68.20
19888;DHT22;10106;51.332;12.336;2022-08-21T12:44:26;27.40;66.50
19888;DHT22;10106;51.332;12.336;2022-08-21T12:47:00;27.60;66.40
19888;DHT22;10106;51.332;12.336;2022-08-21T12:49:31;27.40;65.40
19888;DHT22;10106;51.332;12.336;2022-08-21T12:54:43;27.00;68.00
19888;DHT22;10106;51.332;12.336;2022-08-21T12:57:18;26.90;66.90
19888;DHT22;10106;51.332;12.336;2022-08-21T12:59:44;26.60;67.60
19888;DHT22;10106;51.332;12.336;2022-08-21T13:02:18;26.20;68.70
19888;DHT22;10106;51.332;12.336;2022-08-21T13:04:46;25.90;69.90
19888;DHT22;10106;51.332;12.336;2022-08-21T13:07:16;25.70;70.70
19888;DHT22;10106;51.332;12.336;2022-08-21T13:09:52;25.50;71.80
19888;DHT22;10106;51.332;12.336;2022-08-21T13:12:20;25.30;73.30
19888;DHT22;10106;51.332;12.336;2022-08-21T13:14:47;25.20;73.80
19888;DHT22;10106;51.332;12.336;2022-08-21T13:17:18;25.10;76.30
19888;DHT22;10106;51.332;12.336;2022-08-21T13:20:06;25.00;75.90
19888;DHT22;10106;51.332;12.336;2022-08-21T13:22:39;25.00;75.10
19888;DHT22;10106;51.332;12.336;2022-08-21T13:25:11;24.90;76.10
19888;DHT22;10106;51.332;12.336;2022-08-21T13:27:36;25.10;75.50
19888;DHT22;10106;51.332;12.336;2022-08-21T13:30:04;25.50;74.80
19888;DHT22;10106;51.332;12.336;2022-08-21T13:32:30;26.00;73.10
19888;DHT22;10106;51.332;12.336;2022-08-21T13:34:58;26.00;71.70
19888;DHT22;10106;51.332;12.336;2022-08-21T13:37:26;26.60;71.80
19888;DHT22;10106;51.332;12.336;2022-08-21T13:39:54;27.00;71.20
19888;DHT22;10106;51.332;12.336;2022-08-21T13:42:20;27.30;69.80
19888;DHT22;10106;51.332;12.336;2022-08-21T13:44:47;27.30;67.20
19888;DHT22;10106;51.332;12.336;2022-08-21T13:47:15;27.20;66.80
19888;DHT22;10106;51.332;12.336;2022-08-21T13:49:45;27.50;66.30
19888;DHT22;10106;51.332;12.336;2022-08-21T13:52:20;27.50;65.30
19888;DHT22;10106;51.332;12.336;2022-08-21T13:54:54;27.40;64.50
19888;DHT22;10106;51.332;12.336;2022-08-21T13:57:30;26.80;66.10
19888;DHT22;10106;51.332;12.336;2022-08-21T14:00:19;26.40;66.80
19888;DHT22;10106;51.332;12.336;2022-08-21T14:02:48;26.10;68.20
19888;DHT22;10106;51.332;12.336;2022-08-21T14:05:19;25.80;70.20
19888;DHT22;10106;51.332;12.336;2022-08-21T14:07:45;25.70;70.90
19888;DHT22;10106;51.332;12.336;2022-08-21T14:10:17;25.40;73.50
19888;DHT22;10106;51.332;12.336;2022-08-21T14:12:52;25.40;74.30
19888;DHT22;10106;51.332;12.336;2022-08-21T14:15:25;25.30;74.30
19888;DHT22;10106;51.332;12.336;2022-08-21T14:17:51;25.40;75.20
19888;DHT22;10106;51.332;12.336;2022-08-21T14:20:34;25.30;76.70
19888;DHT22;10106;51.332;12.336;2022-08-21T14:23:01;25.30;76.80
19888;DHT22;10106;51.332;12.336;2022-08-21T14:25:45;25.30;75.70
19888;DHT22;10106;51.332;12.336;2022-08-21T14:28:19;25.10;76.30
19888;DHT22;10106;51.332;12.336;2022-08-21T14:30:46;25.00;77.60
19888;DHT22;10106;51.332;12.336;2022-08-21T14:33:16;24.80;77.70
19888;DHT22;10106;51.332;12.336;2022-08-21T14:35:44;24.80;78.80
19888;DHT22;10106;51.332;12.336;2022-08-21T14:38:15;24.70;79.70
19888;DHT22;10106;51.332;12.336;2022-08-21T14:40:42;24.80;79.00
19888;DHT22;10106;51.332;12.336;2022-08-21T14:43:08;24.80;79.20
19888;DHT22;10106;51.332;12.336;2022-08-21T14:45:35;24.90;79.10
19888;DHT22;10106;51.332;12.336;2022-08-21T14:48:02;24.90;78.40
19888;DHT22;10106;51.332;12.336;2022-08-21T14:50:28;24.90;78.50
19888;DHT22;10106;51.332;12.336;2022-08-21T14:52:55;24.80;78.30
19888;DHT22;10106;51.332;12.336;2022-08-21T14:55:21;24.80;78.30
19888;DHT22;10106;51.332;12.336;2022-08-21T14:57:48;24.80;78.50
19888;DHT22;10106;51.332;12.336;2022-08-21T15:00:19;24.80;78.10
19888;DHT22;10106;51.332;12.336;2022-08-21T15:02:46;24.80;78.20
19888;DHT22;10106;51.332;12.336;2022-08-21T15:05:13;24.90;78.50
19888;DHT22;10106;51.332;12.336;2022-08-21T15:07:38;25.00;78.30
19888;DHT22;10106;51.332;12.336;2022-08-21T15:10:05;25.00;79.20
19888;DHT22;10106;51.332;12.336;2022-08-21T15:12:31;25.10;77.80
19888;DHT22;10106;51.332;12.336;2022-08-21T15:14:57;25.00;77.60
19888;DHT22;10106;51.332;12.336;2022-08-21T15:17:23;24.90;77.00
19888;DHT22;10106;51.332;12.336;2022-08-21T15:19:49;24.90;78.40
19888;DHT22;10106;51.332;12.336;2022-08-21T15:22:14;24.90;79.10
19888;DHT22;10106;51.332;12.336;2022-08-21T15:24:43;24.90;79.90
19888;DHT22;10106;51.332;12.336;2022-08-21T15:27:10;24.90;79.50
19888;DHT22;10106;51.332;12.336;2022-08-21T15:29:36;24.90;78.90
19888;DHT22;10106;51.332;12.336;2022-08-21T15:32:23;24.90;79.40
19888;DHT22;10106;51.332;12.336;2022-08-21T15:34:50;24.90;79.30
19888;DHT22;10106;51.332;12.336;2022-08-21T15:37:16;24.90;79.40
19888;DHT22;10106;51.332;12.336;2022-08-21T15:39:42;24.70;79.70
19888;DHT22;10106;51.332;12.336;2022-08-21T15:42:09;24.70;82.10
19888;DHT22;10106;51.332;12.336;2022-08-21T15:44:36;24.70;82.00
19888;DHT22;10106;51.332;12.336;2022-08-21T15:47:02;24.70;82.20
19888;DHT22;10106;51.332;12.336;2022-08-21T15:49:27;24.80;82.00
19888;DHT22;10106;51.332;12.336;2022-08-21T15:51:53;24.80;81.90
19888;DHT22;10106;51.332;12.336;2022-08-21T15:54:19;24.90;78.90
19888;DHT22;10106;51.332;12.336;2022-08-21T15:56:46;24.80;78.00
19888;DHT22;10106;51.332;12.336;2022-08-21T15:59:17;24.80;78.10
19888;DHT22;10106;51.332;12.336;2022-08-21T16:01:44;24.70;79.20
19888;DHT22;10106;51.332;12.336;2022-08-21T16:04:22;24.60;79.40
19888;DHT22;10106;51.332;12.336;2022-08-21T16:06:48;24.60;81.00
19888;DHT22;10106;51.332;12.336;2022-08-21T16:09:14;24.50;82.50
19888;DHT22;10106;51.332;12.336;2022-08-21T16:11:41;24.50;82.70
19888;DHT22;10106;51.332;12.336;2022-08-21T16:14:07;24.40;82.30
19888;DHT22;10106;51.332;12.336;2022-08-21T16:16:34;24.30;82.30
19888;DHT22;10106;51.332;12.336;2022-08-21T16:19:00;24.20;83.90
19888;DHT22;10106;51.332;12.336;2022-08-21T16:21:27;24.10;85.20
19888;DHT22;10106;51.332;12.336;2022-08-21T16:23:53;24.10;85.50
19888;DHT22;10106;51.332;12.336;2022-08-21T16:26:18;24.10;86.50
19888;DHT22;10106;51.332;12.336;2022-08-21T16:28:44;24.00;85.50
19888;DHT22;10106;51.332;12.336;2022-08-21T16:31:11;23.90;86.40
19888;DHT22;10106;51.332;12.336;2022-08-21T16:33:41;23.90;86.60
19888;DHT22;10106;51.332;12.336;2022-08-21T16:36:08;23.90;87.50
19888;DHT22;10106;51.332;12.336;2022-08-21T16:38:34;23.90;86.80
19888;DHT22;10106;51.332;12.336;2022-08-21T16:41:03;23.80;87.30